createdAt,value
2019-05-07T00:01:52.602Z,105.23
2019-05-07T00:04:22.515Z,103.00
2019-05-07T00:06:52.594Z,100.00
2019-05-07T00:09:23.088Z,104.60
2019-05-07T00:11:50.709Z,93.47
2019-05-07T00:14:19.016Z,68.83
2019-05-07T00:16:47.303Z,57.17
2019-05-07T00:19:15.613Z,59.13
2019-05-07T00:21:44.376Z,70.87
2019-05-07T00:24:13.362Z,74.30
2019-05-07T00:26:43.076Z,82.93
2019-05-07T00:29:12.950Z,83.17
2019-05-07T00:31:42.121Z,78.53
2019-05-07T00:34:12.557Z,89.97
2019-05-07T00:37:02.178Z,106.67
2019-05-07T00:39:42.444Z,98.33
2019-05-07T00:42:15.563Z,95.13
2019-05-07T00:45:16.895Z,99.33
2019-05-07T00:47:34.013Z,98.17
2019-05-07T00:50:06.983Z,92.87
2019-05-07T00:52:35.299Z,91.63
2019-05-07T00:55:05.234Z,91.00
2019-05-07T00:57:33.541Z,123.87
2019-05-07T01:00:02.309Z,106.63
2019-05-07T01:02:32.329Z,105.57
2019-05-07T01:05:03.033Z,106.53
2019-05-07T01:07:32.496Z,103.97
2019-05-07T01:10:02.240Z,104.80
2019-05-07T01:12:32.784Z,100.63
2019-05-07T01:15:02.907Z,101.87
2019-05-07T01:17:33.516Z,98.43
2019-05-07T01:20:02.916Z,87.70
2019-05-07T01:22:33.067Z,82.70
2019-05-07T01:25:02.371Z,89.33
2019-05-07T01:27:32.148Z,99.20
2019-05-07T01:30:02.578Z,120.73
2019-05-07T01:32:35.431Z,117.63
2019-05-07T01:35:07.172Z,109.10
2019-05-07T01:37:35.467Z,115.17
2019-05-07T01:40:04.439Z,116.70
2019-05-07T01:42:33.765Z,112.63
2019-05-07T01:45:03.696Z,114.33
2019-05-07T01:47:33.191Z,112.43
2019-05-07T01:50:03.029Z,109.80
2019-05-07T01:52:33.187Z,108.80
2019-05-07T01:55:03.166Z,108.53
2019-05-07T01:57:32.571Z,107.33
2019-05-07T02:00:02.626Z,106.53
2019-05-07T02:02:35.563Z,103.73
2019-05-07T02:05:13.444Z,103.83
2019-05-07T02:07:43.376Z,100.93
2019-05-07T02:10:13.327Z,99.70
2019-05-07T02:12:42.525Z,99.27
2019-05-07T02:15:11.975Z,99.00
2019-05-07T02:17:42.841Z,98.27
2019-05-07T02:20:12.919Z,96.67
2019-05-07T02:22:42.751Z,95.00
2019-05-07T02:25:12.609Z,94.80
2019-05-07T02:27:42.065Z,91.37
2019-05-07T02:30:14.415Z,87.63
2019-05-07T02:32:43.189Z,90.57
2019-05-07T02:35:13.501Z,87.30
2019-05-07T02:37:51.207Z,86.23
2019-05-07T02:40:14.723Z,85.60
2019-05-07T02:42:44.245Z,83.97
2019-05-07T02:45:23.706Z,83.87
2019-05-07T02:47:52.522Z,82.50
2019-05-07T02:50:26.875Z,78.27
2019-05-07T02:53:04.275Z,79.27
2019-05-07T02:55:37.425Z,82.03
2019-05-07T02:58:05.730Z,76.80
2019-05-07T03:00:34.304Z,75.00
2019-05-07T03:03:04.128Z,76.30
2019-05-07T03:05:34.874Z,74.90
2019-05-07T03:08:03.459Z,74.57
2019-05-07T03:10:33.999Z,73.07
2019-05-07T03:13:03.050Z,72.50
2019-05-07T03:15:33.344Z,72.33
2019-05-07T03:18:03.441Z,69.50
2019-05-07T03:20:35.165Z,69.97
2019-05-07T03:23:04.326Z,69.47
2019-05-07T03:25:54.205Z,67.37
2019-05-07T03:28:24.414Z,67.17
2019-05-07T03:30:57.415Z,67.97
2019-05-07T03:33:27.459Z,67.00
2019-05-07T03:36:00.081Z,68.13
2019-05-07T03:38:28.451Z,64.90
2019-05-07T03:40:56.753Z,65.00
2019-05-07T03:43:27.029Z,63.67
2019-05-07T03:46:09.062Z,64.80
2019-05-07T03:48:39.302Z,61.93
2019-05-07T03:51:07.663Z,60.53
2019-05-07T03:53:36.322Z,61.97
2019-05-07T03:56:04.751Z,59.63
2019-05-07T03:58:34.041Z,59.93
2019-05-07T04:01:04.212Z,58.40
2019-05-07T04:03:34.179Z,57.33
2019-05-07T04:06:03.946Z,59.60
2019-05-07T04:08:33.505Z,57.80
2019-05-07T04:11:03.660Z,56.13
2019-05-07T04:13:33.691Z,55.47
2019-05-07T04:16:04.030Z,54.93
2019-05-07T04:18:33.128Z,53.70
2019-05-07T04:21:03.815Z,53.37
2019-05-07T04:23:34.204Z,53.03
2019-05-07T04:26:04.649Z,53.20
2019-05-07T04:28:37.778Z,53.23
2019-05-07T04:31:06.137Z,52.53
2019-05-07T04:33:36.064Z,52.53
2019-05-07T04:36:08.848Z,51.47
2019-05-07T04:38:37.448Z,52.00
2019-05-07T04:41:05.755Z,48.67
2019-05-07T04:43:34.035Z,49.20
2019-05-07T04:46:03.166Z,47.67
2019-05-07T04:48:34.170Z,47.50
2019-05-07T04:51:03.711Z,47.90
2019-05-07T04:53:32.886Z,46.90
2019-05-07T04:56:03.390Z,47.53
2019-05-07T04:58:33.909Z,45.53
2019-05-07T05:01:03.207Z,46.30
2019-05-07T05:03:34.110Z,45.20
2019-05-07T05:06:02.623Z,45.63
2019-05-07T05:08:32.509Z,46.00
2019-05-07T05:11:03.408Z,43.90
2019-05-07T05:13:33.169Z,44.50
2019-05-07T05:16:02.847Z,42.33
2019-05-07T05:18:32.963Z,43.23
2019-05-07T05:21:19.413Z,42.60
2019-05-07T05:23:49.355Z,42.47
2019-05-07T05:26:17.737Z,42.37
2019-05-07T05:28:46.023Z,42.70
2019-05-07T05:31:14.314Z,41.10
2019-05-07T05:33:42.939Z,41.63
2019-05-07T05:36:12.705Z,40.47
2019-05-07T05:38:42.424Z,41.03
2019-05-07T05:41:12.314Z,39.97
2019-05-07T05:43:54.426Z,37.10
2019-05-07T05:46:24.351Z,39.33
2019-05-07T05:48:52.667Z,40.10
2019-05-07T05:51:25.151Z,37.67
2019-05-07T05:53:57.828Z,38.40
2019-05-07T05:56:36.795Z,37.53
2019-05-07T05:59:12.737Z,36.23
2019-05-07T06:01:42.801Z,38.13
2019-05-07T06:04:32.882Z,37.10
2019-05-07T06:07:19.440Z,36.83
2019-05-07T06:09:49.370Z,36.70
2019-05-07T06:12:25.700Z,34.97
2019-05-07T06:14:58.406Z,35.60
2019-05-07T06:17:37.353Z,35.07
2019-05-07T06:20:09.270Z,34.53
2019-05-07T06:22:45.327Z,35.10
2019-05-07T06:25:18.120Z,34.00
2019-05-07T06:27:46.568Z,33.90
2019-05-07T06:30:15.179Z,35.00
2019-05-07T06:32:43.760Z,35.57
2019-05-07T06:35:12.372Z,33.60
2019-05-07T06:37:42.920Z,35.10
2019-05-07T06:40:29.507Z,31.77
2019-05-07T06:43:03.214Z,32.70
2019-05-07T06:45:36.159Z,32.23
2019-05-07T06:48:04.757Z,32.70
2019-05-07T06:50:33.439Z,33.00
2019-05-07T06:53:02.676Z,32.37
2019-05-07T06:55:32.397Z,30.93
2019-05-07T06:58:02.666Z,30.50
2019-05-07T07:00:33.108Z,30.70
2019-05-07T07:03:22.330Z,53.87
2019-05-07T07:05:52.411Z,96.00
2019-05-07T07:08:41.955Z,81.23
2019-05-07T07:11:22.452Z,83.53
2019-05-07T07:14:02.487Z,82.27
2019-05-07T07:16:32.548Z,74.43
2019-05-07T07:19:03.156Z,77.10
2019-05-07T07:21:32.636Z,73.13
2019-05-07T07:24:03.008Z,66.60
2019-05-07T07:26:32.774Z,72.20
2019-05-07T07:29:02.024Z,71.00
2019-05-07T07:31:32.176Z,79.20
2019-05-07T07:34:02.390Z,78.27
2019-05-07T07:36:32.558Z,80.47
2019-05-07T07:39:02.062Z,78.70
2019-05-07T07:41:35.127Z,74.40
2019-05-07T07:44:04.156Z,70.30
2019-05-07T07:46:33.139Z,69.97
2019-05-07T07:49:07.888Z,83.33
2019-05-07T07:51:38.854Z,79.60
2019-05-07T07:54:02.605Z,69.33
2019-05-07T07:56:49.020Z,71.87
2019-05-07T07:59:16.412Z,59.43
2019-05-07T08:01:58.285Z,55.23
2019-05-07T08:04:26.992Z,62.27
2019-05-07T08:07:04.707Z,71.30
2019-05-07T08:09:33.832Z,65.33
2019-05-07T08:12:02.732Z,61.43
2019-05-07T08:14:32.471Z,55.97
2019-05-07T08:17:02.685Z,55.30
2019-05-07T08:19:32.740Z,52.73
2019-05-07T08:22:02.896Z,53.70
2019-05-07T08:24:32.175Z,57.07
2019-05-07T08:27:02.462Z,53.93
2019-05-07T08:29:32.599Z,52.80
2019-05-07T08:32:22.111Z,54.87
2019-05-07T08:34:52.193Z,55.43
2019-05-07T08:37:24.285Z,53.03
2019-05-07T08:39:52.048Z,55.17
2019-05-07T08:42:22.655Z,51.43
2019-05-07T08:45:04.716Z,52.67
2019-05-07T08:47:53.096Z,52.60
2019-05-07T08:50:22.256Z,51.10
2019-05-07T08:52:52.192Z,46.97
2019-05-07T08:55:21.751Z,47.30
2019-05-07T08:57:52.492Z,48.17
2019-05-07T09:00:22.628Z,48.03
2019-05-07T09:02:52.422Z,43.33
2019-05-07T09:05:22.203Z,45.90
2019-05-07T09:07:51.752Z,65.27
2019-05-07T09:10:21.824Z,87.87
2019-05-07T09:12:52.467Z,64.67
2019-05-07T09:15:22.486Z,64.47
2019-05-07T09:17:52.694Z,65.60
2019-05-07T09:20:22.828Z,82.57
2019-05-07T09:22:51.891Z,99.50
2019-05-07T09:25:22.325Z,101.63
2019-05-07T09:27:52.494Z,94.07
2019-05-07T09:30:28.900Z,94.20
2019-05-07T09:32:58.936Z,92.60
2019-05-07T09:35:39.736Z,110.87
2019-05-07T09:38:07.432Z,122.00
2019-05-07T09:40:35.735Z,129.23
2019-05-07T09:43:04.068Z,127.10
2019-05-07T09:45:32.975Z,117.20
2019-05-07T09:48:02.825Z,114.10
2019-05-07T09:50:32.565Z,109.20
2019-05-07T09:53:02.279Z,110.37
2019-05-07T09:55:32.634Z,109.60
2019-05-07T09:58:02.049Z,108.60
2019-05-07T10:00:31.990Z,103.50
2019-05-07T10:03:00.801Z,105.63
2019-05-07T10:05:29.115Z,106.23
2019-05-07T10:07:57.438Z,112.27
2019-05-07T10:10:25.738Z,129.53
2019-05-07T10:12:55.682Z,111.63
2019-05-07T10:15:23.994Z,104.13
2019-05-07T10:17:57.113Z,98.37
2019-05-07T10:20:25.415Z,80.43
2019-05-07T10:22:53.788Z,79.70
2019-05-07T10:25:22.574Z,72.97
2019-05-07T10:27:53.250Z,72.63
2019-05-07T10:30:21.844Z,73.67
2019-05-07T10:32:52.757Z,71.60
2019-05-07T10:35:22.791Z,73.47
2019-05-07T10:37:52.758Z,69.40
2019-05-07T10:40:22.444Z,73.73
2019-05-07T10:42:51.873Z,69.33
2019-05-07T10:45:38.759Z,70.23
2019-05-07T10:48:14.715Z,63.33
2019-05-07T10:50:45.044Z,104.70
2019-05-07T10:53:13.341Z,126.33
2019-05-07T10:55:42.906Z,123.53
2019-05-07T10:58:11.942Z,99.20
2019-05-07T11:00:42.087Z,93.73
2019-05-07T11:03:12.638Z,85.83
2019-05-07T11:05:41.902Z,99.20
2019-05-07T11:08:10.982Z,88.97
2019-05-07T11:10:41.758Z,88.67
2019-05-07T11:13:10.071Z,95.33
2019-05-07T11:15:38.863Z,93.53
2019-05-07T11:18:23.911Z,89.37
2019-05-07T11:20:53.483Z,85.27
2019-05-07T11:23:22.314Z,95.20
2019-05-07T11:25:53.879Z,95.27
2019-05-07T11:28:22.694Z,97.60
2019-05-07T11:30:51.471Z,113.37
2019-05-07T11:33:21.867Z,103.63
2019-05-07T11:35:53.804Z,98.20
2019-05-07T11:38:24.993Z,96.70
2019-05-07T11:40:52.464Z,96.03
2019-05-07T11:43:22.666Z,98.10
2019-05-07T11:45:54.338Z,95.30
2019-05-07T11:48:24.559Z,92.23
2019-05-07T11:51:09.827Z,90.23
2019-05-07T11:53:41.789Z,86.03
2019-05-07T11:56:11.767Z,82.43
2019-05-07T11:58:40.388Z,79.40
2019-05-07T12:01:16.313Z,81.40
2019-05-07T12:03:44.929Z,79.93
2019-05-07T12:06:13.513Z,81.40
2019-05-07T12:08:49.825Z,80.57
2019-05-07T12:11:12.016Z,78.83
2019-05-07T12:13:42.576Z,88.53
2019-05-07T12:16:13.702Z,93.93
2019-05-07T12:18:42.944Z,94.23
2019-05-07T12:21:20.026Z,93.67
2019-05-07T12:23:42.205Z,95.30
2019-05-07T12:26:12.614Z,89.27
2019-05-07T12:28:41.870Z,84.20
2019-05-07T12:31:12.211Z,88.43
2019-05-07T12:33:48.072Z,88.63
2019-05-07T12:36:16.543Z,91.73
2019-05-07T12:38:44.863Z,89.70
2019-05-07T12:41:33.839Z,95.27
2019-05-07T12:44:05.375Z,96.90
2019-05-07T12:46:33.868Z,92.57
2019-05-07T12:49:03.106Z,92.10
2019-05-07T12:51:37.419Z,140.30
2019-05-07T12:54:12.044Z,136.73
2019-05-07T12:56:42.512Z,122.63
2019-05-07T12:59:12.874Z,114.93
2019-05-07T13:01:48.555Z,109.23
2019-05-07T13:04:18.484Z,134.67
2019-05-07T13:06:48.437Z,143.30
2019-05-07T13:09:17.026Z,139.73
2019-05-07T13:11:45.614Z,115.83
2019-05-07T13:14:14.183Z,123.70
2019-05-07T13:16:42.518Z,112.40
2019-05-07T13:19:12.835Z,131.93
2019-05-07T13:21:49.158Z,117.77
2019-05-07T13:24:11.762Z,110.60
2019-05-07T13:26:42.762Z,107.13
2019-05-07T13:29:12.824Z,103.80
2019-05-07T13:31:41.851Z,103.27
2019-05-07T13:34:12.122Z,105.17
2019-05-07T13:36:42.609Z,106.57
2019-05-07T13:39:12.831Z,105.73
2019-05-07T13:41:43.050Z,100.80
2019-05-07T13:44:22.950Z,94.07
2019-05-07T13:46:53.322Z,88.40
2019-05-07T13:49:22.013Z,81.53
2019-05-07T13:52:03.297Z,75.50
2019-05-07T13:54:21.805Z,63.80
2019-05-07T13:56:52.496Z,65.83
2019-05-07T13:59:22.292Z,63.10
2019-05-07T14:01:52.823Z,55.07
2019-05-07T14:04:22.272Z,52.57
2019-05-07T14:06:52.819Z,48.23
2019-05-07T14:09:24.353Z,45.87
2019-05-07T14:11:52.979Z,43.20
2019-05-07T14:14:22.383Z,41.07
2019-05-07T14:16:53.103Z,40.07
2019-05-07T14:19:22.424Z,39.50
2019-05-07T14:21:52.528Z,37.53
2019-05-07T14:24:22.388Z,37.00
2019-05-07T14:26:52.824Z,39.73
2019-05-07T14:29:24.470Z,35.47
2019-05-07T14:31:55.393Z,37.70
2019-05-07T14:34:28.080Z,33.57
2019-05-07T14:37:12.773Z,32.83
2019-05-07T14:39:42.420Z,32.30
2019-05-07T14:42:22.085Z,30.93
2019-05-07T14:44:52.604Z,30.50
2019-05-07T14:47:22.271Z,29.50
2019-05-07T14:49:52.906Z,28.03
2019-05-07T14:52:30.292Z,26.23
2019-05-07T14:54:51.385Z,26.87
2019-05-07T14:57:22.155Z,26.17
2019-05-07T14:59:52.241Z,26.27
2019-05-07T15:02:20.311Z,28.07
2019-05-07T15:04:48.951Z,28.00
2019-05-07T15:07:17.239Z,28.30
2019-05-07T15:09:45.547Z,24.47
2019-05-07T15:12:14.847Z,22.87
2019-05-07T15:14:43.720Z,33.07
2019-05-07T15:17:18.280Z,23.03
2019-05-07T15:19:46.818Z,67.87
2019-05-07T15:22:28.771Z,62.43
2019-05-07T15:24:57.238Z,47.67
2019-05-07T15:27:25.601Z,44.90
2019-05-07T15:29:53.923Z,42.60
2019-05-07T15:32:22.221Z,36.90
2019-05-07T15:34:52.691Z,35.10
2019-05-07T15:37:21.285Z,34.60
2019-05-07T15:39:49.590Z,33.13
2019-05-07T15:42:18.187Z,32.03
2019-05-07T15:44:46.508Z,29.70
2019-05-07T15:47:19.283Z,29.80
2019-05-07T15:49:47.940Z,40.83
2019-05-07T15:52:18.151Z,45.97
2019-05-07T15:54:46.517Z,91.57
2019-05-07T15:57:16.866Z,81.10
2019-05-07T15:59:45.183Z,76.60
2019-05-07T16:02:22.605Z,65.00
2019-05-07T16:04:51.464Z,66.00
2019-05-07T16:07:22.496Z,56.83
2019-05-07T16:09:52.629Z,55.27
2019-05-07T16:12:22.664Z,53.10
2019-05-07T16:14:52.499Z,54.93
2019-05-07T16:17:25.921Z,53.33
2019-05-07T16:19:55.160Z,54.50
2019-05-07T16:22:25.531Z,51.00
2019-05-07T16:24:54.108Z,47.30
2019-05-07T16:27:22.541Z,51.37
2019-05-07T16:29:52.641Z,50.47
2019-05-07T16:32:23.883Z,49.50
2019-05-07T16:34:52.737Z,47.20
2019-05-07T16:37:21.696Z,47.27
2019-05-07T16:39:52.574Z,46.90
2019-05-07T16:42:21.852Z,44.80
2019-05-07T16:44:52.191Z,43.60
2019-05-07T16:47:20.300Z,42.27
2019-05-07T16:49:49.007Z,43.13
2019-05-07T16:52:17.387Z,42.30
2019-05-07T16:54:45.952Z,44.83
2019-05-07T16:57:15.897Z,43.50
2019-05-07T16:59:44.466Z,43.83
2019-05-07T17:02:14.391Z,43.77
2019-05-07T17:04:44.687Z,46.57
2019-05-07T17:07:14.967Z,63.87
2019-05-07T17:09:43.248Z,47.37
2019-05-07T17:12:13.683Z,51.57
2019-05-07T17:14:42.675Z,47.17
2019-05-07T17:17:12.110Z,47.67
2019-05-07T17:19:42.534Z,45.67
2019-05-07T17:22:12.112Z,45.40
2019-05-07T17:24:42.283Z,42.73
2019-05-07T17:27:11.948Z,42.90
2019-05-07T17:29:42.779Z,40.73
2019-05-07T17:32:12.257Z,40.03
2019-05-07T17:34:42.116Z,38.33
2019-05-07T17:37:12.608Z,44.07
2019-05-07T17:39:42.583Z,39.37
2019-05-07T17:42:11.878Z,55.03
2019-05-07T17:44:40.307Z,39.83
2019-05-07T17:47:08.615Z,48.73
2019-05-07T17:49:36.919Z,48.17
2019-05-07T17:52:05.725Z,47.73
2019-05-07T17:54:34.096Z,49.83
2019-05-07T17:57:02.820Z,46.40
2019-05-07T17:59:32.151Z,57.87
2019-05-07T18:02:18.883Z,72.70
2019-05-07T18:04:51.546Z,80.57
2019-05-07T18:07:18.387Z,70.17
2019-05-07T18:09:46.686Z,65.77
2019-05-07T18:12:15.330Z,66.97
2019-05-07T18:14:43.639Z,67.17
2019-05-07T18:17:22.458Z,66.43
2019-05-07T18:19:50.768Z,61.53
2019-05-07T18:22:22.123Z,59.77
2019-05-07T18:24:52.949Z,61.63
2019-05-07T18:27:22.597Z,57.73
2019-05-07T18:29:52.264Z,57.03
2019-05-07T18:32:21.883Z,66.43
2019-05-07T18:34:51.924Z,70.07
2019-05-07T18:37:22.727Z,116.50
2019-05-07T18:39:52.142Z,124.17
2019-05-07T18:42:22.183Z,92.77
2019-05-07T18:44:52.440Z,69.97
2019-05-07T18:47:22.354Z,67.63
2019-05-07T18:49:51.888Z,70.77
2019-05-07T18:52:22.800Z,65.37
2019-05-07T18:54:52.057Z,63.77
2019-05-07T18:57:22.261Z,63.77
2019-05-07T18:59:53.060Z,67.40
2019-05-07T19:02:22.546Z,63.43
2019-05-07T19:04:52.006Z,61.17
2019-05-07T19:07:22.826Z,56.83
2019-05-07T19:09:51.677Z,55.27
2019-05-07T19:12:23.427Z,53.53
2019-05-07T19:14:52.122Z,53.33
2019-05-07T19:17:21.902Z,51.90
2019-05-07T19:19:52.490Z,50.80
2019-05-07T19:22:22.235Z,55.50
2019-05-07T19:24:52.683Z,53.10
2019-05-07T19:27:22.012Z,57.20
2019-05-07T19:29:50.816Z,99.33
2019-05-07T19:32:19.123Z,93.77
2019-05-07T19:34:47.743Z,98.80
2019-05-07T19:37:16.059Z,86.13
2019-05-07T19:39:44.367Z,70.90
2019-05-07T19:42:12.755Z,70.47
2019-05-07T19:44:43.167Z,69.10
2019-05-07T19:47:12.639Z,67.87
2019-05-07T19:49:41.835Z,63.43
2019-05-07T19:52:12.296Z,66.40
2019-05-07T19:54:42.989Z,97.17
2019-05-07T19:57:12.277Z,88.43
2019-05-07T19:59:42.782Z,84.67
2019-05-07T20:02:12.492Z,65.70
2019-05-07T20:04:42.641Z,58.33
2019-05-07T20:07:12.193Z,57.40
2019-05-07T20:09:42.468Z,57.37
2019-05-07T20:12:10.639Z,62.93
2019-05-07T20:14:38.927Z,63.03
2019-05-07T20:17:07.795Z,62.37
2019-05-07T20:19:36.489Z,79.40
2019-05-07T20:22:05.031Z,65.07
2019-05-07T20:24:33.380Z,66.87
2019-05-07T20:27:03.055Z,57.37
2019-05-07T20:29:32.292Z,50.17
2019-05-07T20:32:00.758Z,54.50
2019-05-07T20:34:29.314Z,54.43
2019-05-07T20:36:57.608Z,53.30
2019-05-07T20:39:25.918Z,50.30
2019-05-07T20:41:54.209Z,53.80
2019-05-07T20:44:22.517Z,54.40
2019-05-07T20:46:53.413Z,54.90
2019-05-07T20:49:22.475Z,54.80
2019-05-07T20:51:52.671Z,53.13
2019-05-07T20:54:28.725Z,55.43
2019-05-07T20:57:14.121Z,51.70
2019-05-07T20:59:42.410Z,51.33
2019-05-07T21:02:11.860Z,51.23
2019-05-07T21:04:42.448Z,53.30
2019-05-07T21:07:11.777Z,58.43
2019-05-07T21:09:42.265Z,65.07
2019-05-07T21:12:12.630Z,81.83
2019-05-07T21:14:41.803Z,81.53
2019-05-07T21:17:11.912Z,82.53
2019-05-07T21:19:42.559Z,83.13
2019-05-07T21:22:12.834Z,77.30
2019-05-07T21:24:42.196Z,73.07
2019-05-07T21:27:12.186Z,78.00
2019-05-07T21:29:42.243Z,76.80
2019-05-07T21:32:12.362Z,74.97
2019-05-07T21:34:42.110Z,78.50
2019-05-07T21:37:12.590Z,76.00
2019-05-07T21:39:42.429Z,71.60
2019-05-07T21:42:13.894Z,72.90
2019-05-07T21:44:43.011Z,70.80
2019-05-07T21:47:12.631Z,68.73
2019-05-07T21:49:43.051Z,69.67
2019-05-07T21:52:12.676Z,68.27
2019-05-07T21:54:46.047Z,66.13
2019-05-07T21:57:32.993Z,65.80
2019-05-07T22:00:12.662Z,65.17
2019-05-07T22:02:41.894Z,70.50
2019-05-07T22:05:11.779Z,70.37
2019-05-07T22:07:40.303Z,77.37
2019-05-07T22:10:08.591Z,83.20
2019-05-07T22:12:38.449Z,83.30
2019-05-07T22:15:06.772Z,86.13
2019-05-07T22:17:35.261Z,77.40
2019-05-07T22:20:04.496Z,101.70
2019-05-07T22:22:32.886Z,91.07
2019-05-07T22:25:04.990Z,88.50
2019-05-07T22:27:32.729Z,88.93
2019-05-07T22:30:02.264Z,86.90
2019-05-07T22:32:47.651Z,79.93
2019-05-07T22:35:34.147Z,83.57
2019-05-07T22:38:03.872Z,76.63
2019-05-07T22:40:32.424Z,82.47
2019-05-07T22:43:02.149Z,83.73
2019-05-07T22:45:32.252Z,82.50
2019-05-07T22:48:02.809Z,77.37
2019-05-07T22:50:33.196Z,72.07
2019-05-07T22:53:02.029Z,74.53
2019-05-07T22:55:32.485Z,78.20
2019-05-07T22:58:08.139Z,80.47
2019-05-07T23:00:38.092Z,84.57
2019-05-07T23:03:06.700Z,80.97
2019-05-07T23:05:35.052Z,78.77
2019-05-07T23:08:03.443Z,81.17
2019-05-07T23:10:33.285Z,78.93
2019-05-07T23:13:02.328Z,77.87
2019-05-07T23:15:32.156Z,84.83
2019-05-07T23:18:04.095Z,84.53
2019-05-07T23:20:31.998Z,81.00
2019-05-07T23:23:00.792Z,76.60
2019-05-07T23:25:29.090Z,121.67
2019-05-07T23:27:57.406Z,102.97
2019-05-07T23:30:26.039Z,104.90
2019-05-07T23:32:54.716Z,101.03
2019-05-07T23:35:23.021Z,100.77
2019-05-07T23:37:52.938Z,106.97
2019-05-07T23:40:26.057Z,110.67
2019-05-07T23:42:56.014Z,95.47
2019-05-07T23:45:24.599Z,97.47
2019-05-07T23:47:53.184Z,95.13
2019-05-07T23:50:21.488Z,94.90
2019-05-07T23:52:50.043Z,112.30
2019-05-07T23:55:18.424Z,102.53
2019-05-07T23:57:46.746Z,110.70
